Time;durP1;ratioP1;P1;durP2;ratioP2;P2;SDS_P1;SDS_P2;PMS_P1;PMS_P2;Temp;Humidity;BMP_temperature;BMP_pressure;BME280_temperature;BME280_humidity;BME280_pressure;Samples;Min_cycle;Max_cycle;Signal;HPM_P1;HPM_P2
2023/07/23 00:01:42;;;;;;;3.90;3.60;;;;;;;16.75;100.00;96110.72;5020396;28;20049;-68
2023/07/23 00:04:07;;;;;;;3.50;3.20;;;;;;;16.69;100.00;96106.91;5018126;28;20437;-68
2023/07/23 00:06:33;;;;;;;4.38;3.47;;;;;;;16.67;100.00;96110.72;5018971;28;20450;-68
2023/07/23 00:08:59;;;;;;;3.63;3.33;;;;;;;16.59;100.00;96114.25;5021536;28;20021;-68
2023/07/23 00:11:24;;;;;;;3.83;3.53;;;;;;;16.57;100.00;96117.06;5016370;28;20101;-68
2023/07/23 00:13:50;;;;;;;3.65;3.35;;;;;;;16.57;100.00;96121.53;5019922;28;20046;-68
2023/07/23 00:16:15;;;;;;;4.13;3.83;;;;;;;16.56;100.00;96112.75;5018900;28;20113;-66
2023/07/23 00:18:41;;;;;;;5.72;3.55;;;;;;;16.55;100.00;96113.75;5020245;28;20022;-68
2023/07/23 00:21:06;;;;;;;3.95;3.65;;;;;;;16.53;100.00;96121.06;5022626;28;20022;-68
2023/07/23 00:23:31;;;;;;;3.58;3.28;;;;;;;16.53;100.00;96114.91;5019416;28;20061;-68
2023/07/23 00:25:57;;;;;;;3.97;3.60;;;;;;;16.48;100.00;96126.06;5023262;28;20046;-68
2023/07/23 00:28:22;;;;;;;4.15;3.65;;;;;;;16.44;100.00;96117.59;5021010;28;20239;-68
2023/07/23 00:30:48;;;;;;;4.78;3.95;;;;;;;16.40;100.00;96115.44;5024252;28;20912;-68
2023/07/23 00:33:13;;;;;;;4.53;4.13;;;;;;;16.37;100.00;96106.00;5015412;28;20116;-68
2023/07/23 00:35:39;;;;;;;6.25;4.35;;;;;;;16.37;100.00;96103.34;5020567;28;20032;-68
2023/07/23 00:38:04;;;;;;;5.22;3.75;;;;;;;16.40;100.00;96105.66;5018798;28;20204;-68
2023/07/23 00:40:30;;;;;;;4.20;3.90;;;;;;;16.39;100.00;96108.47;5019361;28;20014;-68
2023/07/23 00:42:55;;;;;;;4.70;4.20;;;;;;;16.33;100.00;96110.81;5016818;28;20068;-68
2023/07/23 00:45:22;;;;;;;4.65;4.22;;;;;;;16.31;100.00;96111.94;5021184;28;20081;-68
2023/07/23 00:47:48;;;;;;;6.35;4.38;;;;;;;16.30;100.00;96116.44;5019874;28;20041;-68
2023/07/23 00:50:14;;;;;;;5.10;4.22;;;;;;;16.28;100.00;96117.59;5023189;28;20021;-68
2023/07/23 00:52:41;;;;;;;5.35;4.85;;;;;;;16.27;100.00;96115.94;5022657;28;20037;-68
2023/07/23 00:55:07;;;;;;;5.68;4.82;;;;;;;16.25;100.00;96112.63;5018730;28;20022;-68
2023/07/23 00:57:32;;;;;;;4.10;3.80;;;;;;;16.23;100.00;96115.44;5021403;28;20048;-69
2023/07/23 00:59:58;;;;;;;4.35;3.95;;;;;;;16.19;100.00;96116.78;5019932;28;20502;-68
2023/07/23 01:02:26;;;;;;;4.72;4.35;;;;;;;16.18;100.00;96118.63;5018878;28;20111;-68
2023/07/23 01:04:53;;;;;;;5.20;4.78;;;;;;;16.16;100.00;96106.50;5019918;28;20052;-68
2023/07/23 01:07:19;;;;;;;5.20;4.80;;;;;;;16.14;100.00;96108.50;5018895;28;20014;-68
2023/07/23 01:09:46;;;;;;;7.05;5.03;;;;;;;16.13;100.00;96107.66;5015381;28;20060;-68
2023/07/23 01:12:14;;;;;;;7.30;6.43;;;;;;;16.10;100.00;96096.53;5042242;28;20037;-68
2023/07/23 01:14:40;;;;;;;6.50;5.47;;;;;;;16.08;100.00;96101.19;5016653;28;20017;-68
2023/07/23 01:17:07;;;;;;;5.22;4.72;;;;;;;16.06;100.00;96103.19;5016451;28;20022;-68
2023/07/23 01:19:32;;;;;;;5.97;5.22;;;;;;;15.99;100.00;96114.44;5015202;28;20033;-68
2023/07/23 01:22:05;;;;;;;5.25;4.78;;;;;;;15.98;100.00;96106.66;5014563;28;20041;-69
2023/07/23 01:24:31;;;;;;;6.55;5.07;;;;;;;15.96;100.00;96101.50;5018400;28;20037;-68
2023/07/23 01:26:56;;;;;;;5.60;4.40;;;;;;;15.93;100.00;96103.69;5018873;28;20041;-68
2023/07/23 01:29:21;;;;;;;5.30;4.80;;;;;;;15.89;100.00;96105.84;5021705;28;20025;-68
2023/07/23 01:31:47;;;;;;;6.00;5.40;;;;;;;15.81;100.00;96111.13;5015582;28;20022;-68
2023/07/23 01:34:13;;;;;;;5.47;4.85;;;;;;;15.73;100.00;96115.41;5018449;28;20034;-68
2023/07/23 01:36:40;;;;;;;6.38;5.50;;;;;;;15.70;100.00;96112.25;5017540;28;20025;-68
2023/07/23 01:39:05;;;;;;;6.55;5.85;;;;;;;15.62;100.00;96121.03;5017006;28;20022;-68
2023/07/23 01:41:31;;;;;;;6.72;5.85;;;;;;;15.60;100.00;96125.69;5039605;28;20395;-68
2023/07/23 01:43:59;;;;;;;7.28;5.90;;;;;;;15.57;100.00;96116.22;5016488;28;20025;-66
2023/07/23 01:46:25;;;;;;;6.82;6.13;;;;;;;15.54;100.00;96115.69;5018960;28;20037;-68
2023/07/23 01:48:50;;;;;;;6.07;5.47;;;;;;;15.55;100.00;96109.41;5020925;28;20513;-66
2023/07/23 01:51:16;;;;;;;10.30;6.03;;;;;;;15.54;100.00;96107.75;5016170;28;20033;-66
2023/07/23 01:53:41;;;;;;;6.88;5.80;;;;;;;15.49;100.00;96112.72;5015108;28;20037;-66
2023/07/23 01:56:06;;;;;;;8.27;5.40;;;;;;;15.49;100.00;96104.75;5019653;28;20096;-66
2023/07/23 01:58:32;;;;;;;7.95;5.60;;;;;;;15.44;100.00;96105.22;5015188;28;20021;-68
2023/07/23 02:01:00;;;;;;;6.68;5.35;;;;;;;15.43;100.00;96108.88;5017467;28;20021;-68
2023/07/23 02:03:25;;;;;;;6.13;4.88;;;;;;;15.43;100.00;96103.56;5017523;28;20558;-66
2023/07/23 02:06:00;;;;;;;7.38;5.82;;;;;;;15.45;100.00;96098.94;5017541;28;20054;-66
2023/07/23 02:08:26;;;;;;;8.40;6.50;;;;;;;15.44;100.00;96099.91;5021020;28;20028;-66
2023/07/23 02:10:57;;;;;;;8.00;6.35;;;;;;;15.39;100.00;96091.63;5013387;28;20049;-69
2023/07/23 02:13:23;;;;;;;6.03;5.53;;;;;;;15.33;100.00;96087.78;5020979;28;20024;-66
2023/07/23 02:15:48;;;;;;;6.82;6.13;;;;;;;15.25;100.00;96098.38;5011816;28;20029;-69
2023/07/23 02:18:14;;;;;;;7.40;6.30;;;;;;;15.26;100.00;96092.09;5016546;28;20092;-68
2023/07/23 02:20:42;;;;;;;7.38;6.60;;;;;;;15.21;100.00;96092.56;5021451;28;20028;-66
2023/07/23 02:23:07;;;;;;;6.70;6.07;;;;;;;15.24;100.00;96094.88;5026511;28;20061;-66
2023/07/23 02:25:39;;;;;;;7.38;6.00;;;;;;;15.23;100.00;96095.06;5023213;28;20053;-66
2023/07/23 02:28:08;;;;;;;6.55;5.95;;;;;;;15.17;100.00;96097.38;5022599;28;20041;-67
2023/07/23 02:30:33;;;;;;;8.70;5.70;;;;;;;15.20;100.00;96103.34;5023042;28;20025;-67
2023/07/23 02:32:59;;;;;;;6.50;5.68;;;;;;;15.19;100.00;96105.16;5021124;28;20025;-67
2023/07/23 02:35:24;;;;;;;6.65;6.05;;;;;;;15.20;100.00;96113.97;5021123;28;20030;-66
2023/07/23 02:37:49;;;;;;;6.55;5.90;;;;;;;15.23;100.00;96114.44;5015666;28;20097;-67
2023/07/23 02:40:15;;;;;;;7.22;6.55;;;;;;;15.22;100.00;96107.50;5018937;28;20613;-67
2023/07/23 02:42:40;;;;;;;8.15;7.00;;;;;;;15.18;100.00;96106.16;5022946;28;20030;-67
2023/07/23 02:45:06;;;;;;;7.32;6.63;;;;;;;15.17;100.00;96113.28;5022342;28;20052;-67
2023/07/23 02:47:31;;;;;;;6.50;5.90;;;;;;;15.14;100.00;96112.78;5019619;28;20036;-67
2023/07/23 02:49:57;;;;;;;6.85;6.13;;;;;;;15.16;100.00;96114.28;5022649;28;20060;-67
2023/07/23 02:52:23;;;;;;;6.95;5.60;;;;;;;15.10;100.00;96119.41;5026224;28;20022;-67
2023/07/23 02:54:49;;;;;;;7.72;5.70;;;;;;;15.11;100.00;96116.56;5019800;28;20060;-66
2023/07/23 02:57:14;;;;;;;9.73;6.68;;;;;;;15.07;100.00;96123.19;5023211;28;20033;-67
2023/07/23 02:59:40;;;;;;;7.63;6.60;;;;;;;14.96;100.00;96126.13;5024235;28;20021;-67
2023/07/23 03:02:05;;;;;;;10.32;6.60;;;;;;;14.82;100.00;96138.97;5020611;28;20391;-67
2023/07/23 03:04:31;;;;;;;6.55;5.93;;;;;;;14.77;100.00;96135.97;5020427;28;20029;-67
2023/07/23 03:06:56;;;;;;;7.35;6.65;;;;;;;14.77;100.00;96138.63;5023099;28;20029;-67
2023/07/23 03:09:22;;;;;;;7.63;6.95;;;;;;;14.73;100.00;96132.78;5025506;28;20021;-67
2023/07/23 03:11:48;;;;;;;7.75;6.38;;;;;;;14.68;100.00;96132.41;5020290;28;20045;-67
2023/07/23 03:14:13;;;;;;;7.80;7.00;;;;;;;14.65;100.00;96145.97;5022357;28;20840;-66
2023/07/23 03:16:38;;;;;;;9.38;7.03;;;;;;;14.64;100.00;96140.81;5020307;28;20041;-67
2023/07/23 03:19:04;;;;;;;9.43;7.28;;;;;;;14.59;100.00;96149.25;5019407;28;20050;-67
2023/07/23 03:21:29;;;;;;;7.53;6.82;;;;;;;14.58;100.00;96148.41;5020430;28;20097;-66
2023/07/23 03:23:55;;;;;;;7.10;6.40;;;;;;;14.60;100.00;96149.09;5017675;28;20025;-67
2023/07/23 03:26:20;;;;;;;7.13;6.53;;;;;;;14.59;100.00;96146.63;5019994;28;20070;-67
2023/07/23 03:28:45;;;;;;;8.15;7.35;;;;;;;14.55;100.00;96143.44;5017041;28;20029;-67
2023/07/23 03:31:11;;;;;;;8.52;7.15;;;;;;;14.57;100.00;96145.91;5018447;28;20030;-69
2023/07/23 03:33:36;;;;;;;8.38;7.25;;;;;;;14.63;100.00;96140.00;5019997;28;20073;-66
2023/07/23 03:36:03;;;;;;;8.95;7.90;;;;;;;14.66;100.00;96141.50;5017142;28;20038;-67
2023/07/23 03:38:30;;;;;;;7.78;7.07;;;;;;;14.65;100.00;96129.25;5020067;28;20141;-67
2023/07/23 03:40:55;;;;;;;7.90;7.05;;;;;;;14.61;100.00;96131.38;5022133;28;20034;-67
2023/07/23 03:43:21;;;;;;;9.27;8.38;;;;;;;14.59;100.00;96136.81;5016737;28;20029;-68
2023/07/23 03:45:46;;;;;;;8.82;7.93;;;;;;;14.60;100.00;96140.31;5021049;28;20024;-66
2023/07/23 03:48:12;;;;;;;8.65;7.85;;;;;;;14.59;100.00;96134.19;5017483;28;20053;-69
2023/07/23 03:50:38;;;;;;;9.07;8.15;;;;;;;14.58;100.00;96132.53;5028760;28;20029;-68
2023/07/23 03:53:03;;;;;;;9.98;7.60;;;;;;;14.53;100.00;96142.75;5019733;28;20387;-68
2023/07/23 03:55:28;;;;;;;8.85;8.05;;;;;;;14.52;100.00;96127.84;5021304;28;20024;-68
2023/07/23 03:57:54;;;;;;;9.07;8.13;;;;;;;14.51;100.00;96139.44;5022440;28;20035;-68
2023/07/23 04:00:19;;;;;;;10.48;7.43;;;;;;;14.52;100.00;96146.41;5016171;28;20037;-68
2023/07/23 04:02:44;;;;;;;10.02;7.63;;;;;;;14.52;100.00;96146.41;5016331;28;20096;-68
2023/07/23 04:05:10;;;;;;;8.35;7.55;;;;;;;14.49;100.00;96154.66;5018536;28;20018;-68
2023/07/23 04:07:35;;;;;;;9.45;7.88;;;;;;;14.41;100.00;96155.44;5024712;28;20093;-68
2023/07/23 04:10:03;;;;;;;8.98;8.02;;;;;;;14.44;100.00;96162.22;5025255;28;20034;-68
2023/07/23 04:12:28;;;;;;;9.45;8.45;;;;;;;14.45;100.00;96169.19;5020457;28;20325;-68
2023/07/23 04:14:54;;;;;;;11.60;7.78;;;;;;;14.46;100.00;96166.38;5017144;28;20036;-68
2023/07/23 04:17:19;;;;;;;8.35;7.55;;;;;;;14.46;100.00;96176.97;5014716;28;20034;-68
2023/07/23 04:19:45;;;;;;;8.65;7.88;;;;;;;14.42;100.00;96169.50;5019878;28;20104;-68
2023/07/23 04:22:10;;;;;;;8.68;7.78;;;;;;;14.51;100.00;96157.97;5020301;28;20084;-68
2023/07/23 04:24:35;;;;;;;10.57;8.02;;;;;;;14.53;100.00;96161.31;5020852;28;20025;-68
2023/07/23 04:27:01;;;;;;;9.35;7.82;;;;;;;14.44;100.00;96163.06;5020496;28;20133;-68
2023/07/23 04:29:26;;;;;;;9.65;8.65;;;;;;;14.37;100.00;96162.03;5019488;28;20033;-68
2023/07/23 04:31:51;;;;;;;9.23;8.35;;;;;;;14.35;100.00;96165.81;5017467;28;20030;-68
2023/07/23 04:34:17;;;;;;;9.25;8.35;;;;;;;14.33;100.00;96166.78;5019876;28;20163;-68
2023/07/23 04:36:42;;;;;;;9.23;8.32;;;;;;;14.41;100.00;96162.53;5019225;28;20040;-68
2023/07/23 04:39:08;;;;;;;10.43;8.57;;;;;;;14.42;100.00;96167.69;5017442;28;20102;-68
2023/07/23 04:41:33;;;;;;;9.75;8.45;;;;;;;14.37;100.00;96174.44;5018704;28;20045;-68
2023/07/23 04:43:58;;;;;;;9.25;8.13;;;;;;;14.30;100.00;96172.41;5017079;28;20067;-68
2023/07/23 04:46:24;;;;;;;11.00;8.70;;;;;;;14.19;100.00;96172.63;5017009;28;20022;-68
2023/07/23 04:48:49;;;;;;;8.88;7.97;;;;;;;14.23;100.00;96173.16;5019110;28;20036;-68
2023/07/23 04:51:15;;;;;;;10.98;8.98;;;;;;;14.26;100.00;96176.34;5020416;28;20860;-68
2023/07/23 04:53:40;;;;;;;10.45;9.35;;;;;;;14.28;100.00;96168.22;5017962;28;20045;-68
2023/07/23 04:56:05;;;;;;;11.35;9.35;;;;;;;14.33;100.00;96165.94;5018038;28;20148;-68
2023/07/23 04:58:32;;;;;;;10.13;8.95;;;;;;;14.33;100.00;96172.09;5017653;28;20025;-68
2023/07/23 05:00:59;;;;;;;10.45;9.38;;;;;;;14.37;100.00;96169.97;5015043;28;20063;-68
2023/07/23 05:03:24;;;;;;;10.02;9.02;;;;;;;14.42;100.00;96186.22;5021610;28;20029;-68
2023/07/23 05:05:51;;;;;;;11.25;8.73;;;;;;;14.45;100.00;96179.78;5017180;28;20428;-68
2023/07/23 05:08:21;;;;;;;10.35;8.63;;;;;;;14.49;100.00;96177.66;5017765;28;20107;-68
2023/07/23 05:10:47;;;;;;;10.68;8.95;;;;;;;14.46;100.00;96179.63;5022062;28;20034;-68
2023/07/23 05:13:13;;;;;;;10.82;9.60;;;;;;;14.52;100.00;96180.84;5020228;28;20120;-68
2023/07/23 05:15:39;;;;;;;15.35;10.32;;;;;;;14.61;100.00;96176.44;5029036;28;20049;-67
2023/07/23 05:18:05;;;;;;;9.75;8.77;;;;;;;14.67;100.00;96177.59;5019813;28;20061;-67
2023/07/23 05:20:30;;;;;;;11.38;10.25;;;;;;;14.75;100.00;96175.88;5016052;28;20018;-68
2023/07/23 05:22:56;;;;;;;10.88;9.20;;;;;;;14.85;100.00;96175.78;5016347;28;20033;-68
2023/07/23 05:25:21;;;;;;;11.85;9.07;;;;;;;14.94;100.00;96168.69;5021035;28;20033;-68
2023/07/23 05:27:48;;;;;;;10.75;9.73;;;;;;;15.06;100.00;96161.28;5020367;28;20142;-68
2023/07/23 05:30:14;;;;;;;11.88;9.73;;;;;;;15.20;100.00;96167.00;5021907;28;20510;-68
2023/07/23 05:32:40;;;;;;;13.13;10.25;;;;;;;15.37;100.00;96166.09;5019779;28;20030;-69
2023/07/23 05:35:05;;;;;;;13.02;10.43;;;;;;;15.55;100.00;96171.28;5017966;28;20091;-67
2023/07/23 05:37:31;;;;;;;12.02;10.70;;;;;;;15.71;100.00;96159.03;5019896;28;20014;-68
2023/07/23 05:39:56;;;;;;;13.38;11.85;;;;;;;15.89;100.00;96162.41;5023040;28;20406;-69
2023/07/23 05:42:22;;;;;;;14.65;12.68;;;;;;;16.00;100.00;96147.97;5016736;28;20037;-68
2023/07/23 05:44:47;;;;;;;16.83;12.48;;;;;;;16.13;100.00;96142.16;5021604;28;20026;-69
2023/07/23 05:47:13;;;;;;;20.45;14.80;;;;;;;16.28;100.00;96145.03;5018907;28;20283;-68
2023/07/23 05:49:38;;;;;;;16.05;14.20;;;;;;;16.38;100.00;96131.56;5023817;28;20028;-68
2023/07/23 05:52:05;;;;;;;19.35;15.48;;;;;;;16.49;100.00;96138.38;5017568;28;20026;-68
2023/07/23 05:54:30;;;;;;;20.58;15.00;;;;;;;16.58;100.00;96140.00;5017912;28;20074;-68
2023/07/23 05:56:56;;;;;;;16.80;14.88;;;;;;;16.73;100.00;96134.81;5017600;28;20028;-68
2023/07/23 05:59:21;;;;;;;19.90;15.10;;;;;;;16.86;100.00;96136.94;5020681;28;20053;-69
2023/07/23 06:01:46;;;;;;;17.48;14.30;;;;;;;16.99;100.00;96131.09;5015215;28;20018;-68
2023/07/23 06:04:13;;;;;;;15.45;13.82;;;;;;;17.15;100.00;96129.41;5011766;28;20494;-68
2023/07/23 06:06:38;;;;;;;14.73;13.27;;;;;;;17.28;100.00;96139.47;5018904;28;20147;-68
2023/07/23 06:09:04;;;;;;;15.32;13.32;;;;;;;17.37;100.00;96142.94;5019859;28;20069;-69
2023/07/23 06:11:29;;;;;;;15.20;13.60;;;;;;;17.49;100.00;96154.03;5022767;28;20089;-66
2023/07/23 06:13:55;;;;;;;14.80;13.30;;;;;;;17.57;100.00;96153.97;5018878;28;20029;-66
2023/07/23 06:16:20;;;;;;;14.70;13.18;;;;;;;17.67;100.00;96154.59;5024755;28;20068;-69
2023/07/23 06:18:46;;;;;;;17.90;13.68;;;;;;;17.86;100.00;96147.97;5020830;28;20021;-68
2023/07/23 06:21:11;;;;;;;15.93;11.90;;;;;;;17.93;100.00;96133.97;5018332;28;20037;-66
2023/07/23 06:23:36;;;;;;;15.02;13.43;;;;;;;18.02;100.00;96139.09;5017381;28;20050;-67
2023/07/23 06:26:02;;;;;;;15.55;12.55;;;;;;;18.16;100.00;96123.31;5016389;28;20061;-67
2023/07/23 06:28:27;;;;;;;14.23;12.73;;;;;;;18.28;100.00;96108.56;5018879;28;20025;-66
2023/07/23 06:30:53;;;;;;;15.13;13.45;;;;;;;18.41;100.00;96107.13;5016880;28;20113;-66
2023/07/23 06:33:19;;;;;;;15.60;12.75;;;;;;;18.54;100.00;96110.00;5014523;28;20028;-66
2023/07/23 06:35:46;;;;;;;16.25;12.32;;;;;;;18.69;100.00;96127.88;5019762;28;20025;-66
2023/07/23 06:38:11;;;;;;;13.80;12.18;;;;;;;18.88;100.00;96121.97;5017999;28;20026;-66
2023/07/23 06:40:37;;;;;;;14.35;12.25;;;;;;;19.03;100.00;96131.84;5015362;28;20032;-66
2023/07/23 06:43:02;;;;;;;16.38;12.70;;;;;;;19.11;100.00;96134.41;4998727;28;20108;-66
2023/07/23 06:45:28;;;;;;;13.02;11.63;;;;;;;19.18;100.00;96134.50;5018943;28;20125;-68
2023/07/23 06:47:55;;;;;;;13.20;11.80;;;;;;;19.14;100.00;96123.38;5019890;28;20056;-66
2023/07/23 06:50:20;;;;;;;15.60;13.02;;;;;;;19.20;100.00;96120.97;5011906;28;20079;-67
2023/07/23 06:52:46;;;;;;;13.90;12.43;;;;;;;19.27;100.00;96116.53;5021693;28;20025;-67
2023/07/23 06:55:11;;;;;;;14.93;13.02;;;;;;;19.34;100.00;96117.44;5019771;28;20086;-66
2023/07/23 06:57:38;;;;;;;14.45;12.43;;;;;;;19.53;100.00;96124.06;5018863;28;20040;-67
2023/07/23 07:00:07;;;;;;;15.15;12.55;;;;;;;19.90;100.00;96106.16;5017880;28;20025;-67
2023/07/23 07:02:34;;;;;;;15.68;12.02;;;;;;;20.23;100.00;96098.66;5021421;28;20033;-67
2023/07/23 07:05:00;;;;;;;14.95;13.00;;;;;;;20.36;100.00;96084.56;5024988;28;20051;-67
2023/07/23 07:07:25;;;;;;;15.05;13.23;;;;;;;20.55;100.00;96080.38;5019972;28;20453;-67
2023/07/23 07:09:52;;;;;;;14.63;12.55;;;;;;;20.90;100.00;96080.41;5021275;28;20992;-67
2023/07/23 07:12:18;;;;;;;14.23;12.60;;;;;;;21.18;100.00;96072.31;5022418;28;20032;-67
2023/07/23 07:14:43;;;;;;;17.75;14.95;;;;;;;21.42;100.00;96080.84;5043009;28;20041;-67
2023/07/23 07:17:09;;;;;;;18.52;15.70;;;;;;;21.55;100.00;96079.22;5017671;28;20509;-67
2023/07/23 07:19:34;;;;;;;18.55;15.93;;;;;;;21.75;100.00;96077.44;5021393;28;20029;-67
2023/07/23 07:21:59;;;;;;;19.23;14.63;;;;;;;21.96;100.00;96080.19;5019482;28;20021;-67
2023/07/23 07:24:25;;;;;;;16.30;14.55;;;;;;;22.36;100.00;96063.25;5023826;28;20014;-67
2023/07/23 07:26:50;;;;;;;16.13;14.38;;;;;;;22.68;100.00;96058.91;5020305;28;20124;-67
2023/07/23 07:29:16;;;;;;;16.48;14.77;;;;;;;22.90;100.00;96053.28;5018482;28;20033;-67
2023/07/23 07:31:41;;;;;;;14.90;13.32;;;;;;;23.19;100.00;96053.78;5015655;28;20079;-67
2023/07/23 07:34:06;;;;;;;13.40;12.00;;;;;;;23.53;100.00;96048.28;5014532;28;20082;-66
2023/07/23 07:36:32;;;;;;;13.85;12.50;;;;;;;23.80;100.00;96048.16;5016710;28;20022;-67
2023/07/23 07:38:57;;;;;;;13.35;12.05;;;;;;;24.05;100.00;96055.44;5022019;28;20025;-66
2023/07/23 07:41:22;;;;;;;14.65;12.27;;;;;;;24.03;100.00;96044.88;5026176;28;20643;-67
2023/07/23 07:43:48;;;;;;;11.98;10.77;;;;;;;23.82;100.00;96052.25;5021166;28;20022;-66
2023/07/23 07:46:13;;;;;;;11.70;10.35;;;;;;;24.07;100.00;96046.09;5026042;28;20038;-67
2023/07/23 07:48:39;;;;;;;14.88;12.52;;;;;;;24.30;100.00;96041.97;5019946;28;20021;-67
2023/07/23 07:51:08;;;;;;;17.85;16.05;;;;;;;24.20;100.00;96045.16;5022084;28;20134;-66
2023/07/23 07:53:35;;;;;;;22.30;18.10;;;;;;;24.07;100.00;96042.59;5022868;28;20025;-67
2023/07/23 07:56:01;;;;;;;20.95;18.40;;;;;;;23.34;100.00;96040.16;5018666;28;20065;-67
2023/07/23 07:58:27;;;;;;;19.63;17.70;;;;;;;23.29;100.00;96043.47;5019289;28;20036;-66
2023/07/23 08:00:58;;;;;;;18.88;16.98;;;;;;;23.24;100.00;96043.25;5016790;28;20033;-67
2023/07/23 08:03:27;;;;;;;23.67;18.73;;;;;;;23.45;100.00;96042.13;5023972;28;21210;-66
2023/07/23 08:05:55;;;;;;;21.50;16.88;;;;;;;23.93;100.00;96039.97;5021720;28;20056;-66
2023/07/23 08:08:25;;;;;;;18.92;17.02;;;;;;;24.29;100.00;96029.56;5024301;28;20453;-67
2023/07/23 08:10:55;;;;;;;18.42;16.50;;;;;;;24.79;100.00;96027.88;5022265;28;20053;-67
2023/07/23 08:13:21;;;;;;;21.80;15.48;;;;;;;25.11;100.00;96025.00;5019124;28;20026;-67
2023/07/23 08:15:47;;;;;;;15.10;13.60;;;;;;;25.45;100.00;96017.34;5025634;28;20028;-67
2023/07/23 08:18:14;;;;;;;14.45;12.95;;;;;;;25.56;100.00;96018.47;5041143;28;20038;-67
2023/07/23 08:20:40;;;;;;;15.10;12.77;;;;;;;25.86;100.00;96015.72;5021269;28;20072;-67
2023/07/23 08:23:05;;;;;;;12.90;11.70;;;;;;;25.84;100.00;96008.91;5020154;28;20494;-67
2023/07/23 08:25:31;;;;;;;16.48;12.20;;;;;;;25.85;100.00;96007.84;5017039;28;20068;-67
2023/07/23 08:28:01;;;;;;;14.50;12.98;;;;;;;26.14;100.00;96002.59;5023935;28;20160;-66
2023/07/23 08:30:28;;;;;;;12.77;11.48;;;;;;;25.89;100.00;96003.63;5021736;28;20052;-66
2023/07/23 08:32:58;;;;;;;14.55;12.55;;;;;;;25.95;100.00;95999.19;5017524;28;20045;-66
2023/07/23 08:35:25;;;;;;;12.60;11.35;;;;;;;26.19;100.00;95994.66;5019329;28;20192;-66
2023/07/23 08:37:51;;;;;;;12.85;11.38;;;;;;;26.10;100.00;95993.34;5022655;28;20022;-66
2023/07/23 08:40:17;;;;;;;11.70;10.60;;;;;;;26.39;100.00;95988.94;5022156;28;20025;-67
2023/07/23 08:42:58;;;;;;;12.40;11.10;;;;;;;26.30;100.00;95988.47;5020990;28;20039;-68
2023/07/23 08:45:41;;;;;;;10.85;9.75;;;;;;;26.78;100.00;95980.31;5020027;28;20399;-67
2023/07/23 08:48:18;;;;;;;11.20;9.48;;;;;;;26.99;100.00;95976.19;5018059;28;20034;-68
2023/07/23 08:50:48;;;;;;;10.93;9.85;;;;;;;26.99;100.00;95972.66;5020554;28;20442;-68
2023/07/23 08:53:14;;;;;;;14.20;11.48;;;;;;;26.84;100.00;95970.44;5018990;28;20037;-68
2023/07/23 08:55:45;;;;;;;12.30;11.10;;;;;;;26.47;100.00;95968.84;5017270;28;20027;-66
2023/07/23 08:58:16;;;;;;;12.15;10.90;;;;;;;26.56;100.00;95972.03;5024072;28;20112;-66
2023/07/23 09:00:43;;;;;;;14.73;11.15;;;;;;;26.71;100.00;95968.81;5020384;28;20040;-68
2023/07/23 09:03:11;;;;;;;11.48;10.38;;;;;;;26.76;100.00;95968.91;5001336;28;20426;-67
2023/07/23 09:05:38;;;;;;;12.70;11.50;;;;;;;26.80;100.00;95966.56;5018761;28;20026;-68
2023/07/23 09:08:04;;;;;;;14.05;12.65;;;;;;;27.33;100.00;95967.34;5043010;28;20378;-67
2023/07/23 09:10:29;;;;;;;12.85;11.68;;;;;;;27.40;100.00;95965.31;5018165;28;20125;-67
2023/07/23 09:12:55;;;;;;;13.25;11.85;;;;;;;27.48;100.00;95966.81;5018169;28;20470;-67
2023/07/23 09:15:20;;;;;;;12.50;11.35;;;;;;;27.31;100.00;95964.09;5015934;28;20415;-67
2023/07/23 09:17:51;;;;;;;16.38;11.07;;;;;;;27.83;100.00;95967.69;5013151;28;20563;-66
2023/07/23 09:20:18;;;;;;;14.73;12.05;;;;;;;28.16;100.00;95971.47;5018982;28;20045;-67
2023/07/23 09:22:44;;;;;;;13.23;11.98;;;;;;;28.33;100.00;95965.22;5020819;28;20470;-68
2023/07/23 09:25:10;;;;;;;16.02;12.38;;;;;;;28.42;100.00;95961.03;5017332;28;20022;-68
2023/07/23 09:27:36;;;;;;;12.85;11.55;;;;;;;28.66;100.00;95958.09;5022009;28;20076;-68
2023/07/23 09:30:03;;;;;;;14.77;12.45;;;;;;;28.81;100.00;95958.31;5015317;28;20029;-67
2023/07/23 09:32:29;;;;;;;13.00;11.80;;;;;;;28.91;100.00;95959.50;5022639;28;20512;-68
2023/07/23 09:34:58;;;;;;;13.13;11.88;;;;;;;29.08;100.00;95959.44;5022094;28;20034;-68
2023/07/23 09:37:27;;;;;;;12.75;11.52;;;;;;;29.00;100.00;95957.97;5017007;28;20034;-68
2023/07/23 09:39:56;;;;;;;13.43;12.02;;;;;;;28.87;100.00;95954.59;5018489;28;20049;-68
2023/07/23 09:42:22;;;;;;;12.50;11.30;;;;;;;29.20;100.00;95951.16;5015913;28;20036;-68
2023/07/23 09:44:48;;;;;;;13.18;11.93;;;;;;;29.13;100.00;95952.19;5020354;28;20415;-68
2023/07/23 09:47:14;;;;;;;13.32;11.93;;;;;;;29.17;100.00;95956.00;5017632;28;20030;-68
2023/07/23 09:49:41;;;;;;;12.00;10.90;;;;;;;29.26;100.00;95953.69;5018823;28;20499;-68
2023/07/23 09:52:08;;;;;;;12.07;10.88;;;;;;;29.50;100.00;95941.72;5020968;28;20641;-68
2023/07/23 09:54:35;;;;;;;11.95;10.88;;;;;;;29.20;100.00;95941.16;5023435;28;20026;-68
2023/07/23 09:57:02;;;;;;;13.32;12.13;;;;;;;29.63;100.00;95932.38;5017312;28;20124;-68
2023/07/23 09:59:28;;;;;;;12.73;11.57;;;;;;;29.98;100.00;95939.13;5019086;28;20026;-69
2023/07/23 10:01:54;;;;;;;12.68;11.38;;;;;;;29.85;100.00;95929.53;5018969;28;20036;-68
2023/07/23 10:04:22;;;;;;;14.07;12.15;;;;;;;30.06;100.00;95924.28;5012722;28;20086;-68
2023/07/23 10:06:48;;;;;;;13.32;12.02;;;;;;;29.99;100.00;95932.63;5015858;28;20029;-69
2023/07/23 10:09:15;;;;;;;13.52;12.13;;;;;;;30.00;100.00;95932.38;5016868;28;20036;-68
2023/07/23 10:11:40;;;;;;;12.77;11.63;;;;;;;30.00;100.00;95934.25;5016705;28;20053;-67
2023/07/23 10:14:06;;;;;;;13.52;12.15;;;;;;;30.17;100.00;95934.13;5019448;28;20068;-68
2023/07/23 10:16:40;;;;;;;13.70;12.40;;;;;;;30.28;100.00;95926.88;5019242;28;20390;-68
2023/07/23 10:19:08;;;;;;;13.13;11.82;;;;;;;30.25;100.00;95921.97;5019494;28;20039;-69
2023/07/23 10:21:35;;;;;;;13.68;12.27;;;;;;;30.61;100.00;95921.31;5016639;28;20698;-69
2023/07/23 10:24:02;;;;;;;12.65;11.45;;;;;;;30.87;100.00;95912.25;5016917;28;20083;-69
2023/07/23 10:26:28;;;;;;;13.73;12.38;;;;;;;31.08;100.00;95911.47;5017899;28;20045;-69
2023/07/23 10:29:07;;;;;;;13.20;11.98;;;;;;;31.42;100.00;95906.41;5016863;28;20110;-69
2023/07/23 10:31:32;;;;;;;14.05;12.57;;;;;;;31.50;100.00;95905.03;5016252;28;20155;-68
2023/07/23 10:33:59;;;;;;;15.80;13.95;;;;;;;31.68;100.00;95903.69;5016332;28;20053;-69
2023/07/23 10:36:24;;;;;;;19.30;17.27;;;;;;;31.63;100.00;95894.72;5021324;28;20514;-69
2023/07/23 10:39:17;;;;;;;13.38;12.13;;;;;;;31.39;100.00;95896.06;5021894;28;20048;-68
2023/07/23 10:41:53;;;;;;;16.30;12.25;;;;;;;31.76;100.00;95882.47;5018735;28;20042;-68
2023/07/23 10:44:21;;;;;;;14.35;13.05;;;;;;;31.98;100.00;95885.75;5019848;28;20112;-68
2023/07/23 10:46:46;;;;;;;16.33;13.35;;;;;;;32.06;100.00;95880.81;5019619;28;20026;-69
2023/07/23 10:49:27;;;;;;;14.70;13.23;;;;;;;31.89;100.00;95881.13;5024573;28;20036;-69
2023/07/23 10:51:53;;;;;;;14.15;12.77;;;;;;;32.07;100.00;95877.00;5022812;28;20025;-69
2023/07/23 10:54:20;;;;;;;13.85;12.32;;;;;;;32.33;100.00;95871.50;5022934;28;20032;-69
2023/07/23 10:56:49;;;;;;;14.32;12.93;;;;;;;32.66;100.00;95872.75;5023247;28;20026;-69
2023/07/23 10:59:16;;;;;;;14.65;13.15;;;;;;;32.77;100.00;95867.25;5019947;28;20064;-69
2023/07/23 11:01:48;;;;;;;13.50;12.20;;;;;;;32.76;100.00;95865.63;5024245;28;20078;-69
2023/07/23 11:04:14;;;;;;;13.48;12.07;;;;;;;32.82;100.00;95859.06;5023311;28;20098;-69
2023/07/23 11:07:00;;;;;;;13.63;12.25;;;;;;;32.78;100.00;95866.16;5026431;28;20052;-69
2023/07/23 11:09:44;;;;;;;13.13;11.85;;;;;;;32.85;100.00;95861.22;5027399;28;20060;-69
2023/07/23 11:12:09;;;;;;;14.77;13.25;;;;;;;33.04;100.00;95850.47;5023079;28;20092;-69
2023/07/23 11:14:35;;;;;;;14.18;12.73;;;;;;;33.37;100.00;95848.09;5023114;28;20029;-68